This is the latest recevied weather packets stored in our database for station/object KB0Y. If no packets are shown the sender has not sent any weather packets the latest 10 day(s).
| Time | Temp. | Humidity | Pressure | Rain* | Wind** | Luminosity | Snow |
|---|---|---|---|---|---|---|---|
| 1777986287 | 17.22° C | 84% | 1020.6 hPa | 0 mm | - | 227 W/m² | - |
| 1777985984 | 17.22° C | 84% | 1020.6 hPa | 0 mm | - | 227 W/m² | - |
| 1777985682 | 16.67° C | 84% | 1020.3 hPa | 0 mm | - | 212 W/m² | - |
| 1777985378 | 16.67° C | 85% | 1020.3 hPa | 0 mm | - | 202 W/m² | - |
| 1777985075 | 16.67° C | 86% | 1020.3 hPa | 0 mm | - | 194 W/m² | - |
| 1777984771 | 16.67° C | 88% | 1020 hPa | 0 mm | - | 182 W/m² | - |
| 1777984468 | 16.11° C | 89% | 1020.6 hPa | 0 mm | - | 172 W/m² | - |
| 1777984164 | 16.11° C | 90% | 1020.3 hPa | 0 mm | - | 166 W/m² | - |
| 1777983862 | 16.11° C | 93% | 1020.3 hPa | 0 mm | - | 160 W/m² | - |
| 1777983558 | 16.11° C | 96% | 1020.3 hPa | 0 mm | - | 153 W/m² | - |
| 1777983255 | 16.11° C | 99% | 1020.3 hPa | 0 mm | - | 145 W/m² | - |
| 1777982951 | 15° C | 99% | 1020.3 hPa | 0 mm | - | 73 W/m² | - |
| 1777982647 | 14.44° C | 99% | 1020 hPa | 0 mm | - | 59 W/m² | - |
| 1777982346 | 14.44° C | 99% | 1020 hPa | 0 mm | - | 59 W/m² | - |
| 1777982043 | - | - | - | 0 mm | - | - | - |
| 1777981741 | - | - | - | 0 mm | - | - | - |
| 1777981437 | 13.89° C | 99% | 1020 hPa | 0 mm | - | 46 W/m² | - |
| 1777981134 | 13.89° C | 99% | 1020 hPa | 0 mm | - | 46 W/m² | - |
| 1777980831 | 13.33° C | 99% | 1020 hPa | 0 mm | - | 36 W/m² | - |
| 1777980526 | 13.33° C | 99% | 1020 hPa | 0 mm | - | 32 W/m² | - |
| 1777980224 | 13.33° C | 99% | 1020 hPa | 0 mm | - | 29 W/m² | - |
| 1777979920 | 13.33° C | 99% | 1020 hPa | 0 mm | - | 24 W/m² | - |
| 1777979615 | 13.33° C | 99% | 1020 hPa | 0 mm | - | 21 W/m² | - |
| 1777979311 | 13.33° C | 99% | 1020 hPa | 0 mm | - | 17 W/m² | - |
| 1777979009 | 13.33° C | 99% | 1020 hPa | 0 mm | - | 8 W/m² | - |
* Rain latest hour (hover to see other rain measurements)
** Current wind speed in m/s (hover to see current wind gust speed)